aviador You're here:

MHCA Decoded Metar

CATACAMAS in HONDURAS
Report Time2017-11-20 04:00:00
UTC Time2017-11-20 05:54:36
Flight Rules Old
Wind080° at 02 kt
W.Rank080° ranks 3
Current wind is below 080° avg. (3.9)
Visibility9999 m
Phenomena:N/A
Clouds:Scattered 026 Hf
Expected CloudBase > 800 ft AGL from Temp-Dew spread
CeilingNone
Temp20°C (ISA +8)
Dew Point18°C (88% RH)
QNH1016 hPa
Density Alt2,549 ft
Elevation1,450 ft
Report Wrong Elevation
Raw Report
METAR MHCA 200400Z 08002KT 9999 SCT026 20/18 Q1016=

Extra information for MHCA:More info

Metar Taf Metar & Taf Last 4 Metars F.Rules Stats Wind Profile Meteogram Temp Stats Airport Information Weather charts Add Link Nearby VenuesMetar ALERT Operation Metar Decoded Social comments